createdAt,value
2023-02-07T00:01:47.338Z,12.10
2023-02-07T00:04:29.961Z,12.98
2023-02-07T00:07:12.660Z,12.52
2023-02-07T00:09:57.835Z,11.80
2023-02-07T00:12:40.659Z,10.50
2023-02-07T00:15:23.275Z,11.25
2023-02-07T00:18:05.915Z,12.93
2023-02-07T00:20:58.018Z,12.65
2023-02-07T00:23:41.653Z,13.32
2023-02-07T00:26:26.975Z,9.00
2023-02-07T00:29:09.635Z,11.70
2023-02-07T00:31:52.235Z,9.48
2023-02-07T00:34:36.635Z,10.43
2023-02-07T00:37:20.958Z,10.68
2023-02-07T00:40:04.202Z,10.50
2023-02-07T00:42:48.229Z,10.50
2023-02-07T00:45:30.839Z,10.95
2023-02-07T00:48:13.570Z,9.75
2023-02-07T00:50:56.271Z,13.52
2023-02-07T00:53:39.463Z,11.10
2023-02-07T00:56:22.431Z,9.05
2023-02-07T00:59:07.457Z,9.30
2023-02-07T01:01:51.192Z,9.30
2023-02-07T01:04:33.915Z,11.27
2023-02-07T01:07:16.604Z,9.57
2023-02-07T01:09:59.279Z,9.15
2023-02-07T01:12:41.934Z,8.55
2023-02-07T01:15:26.818Z,8.95
2023-02-07T01:18:09.861Z,8.98
2023-02-07T01:20:52.467Z,8.13
2023-02-07T01:23:35.110Z,10.85
2023-02-07T01:26:17.976Z,8.13
2023-02-07T01:29:02.430Z,8.93
2023-02-07T01:31:46.522Z,10.88
2023-02-07T01:34:29.236Z,9.20
2023-02-07T01:37:11.950Z,10.55
2023-02-07T01:39:54.980Z,7.75
2023-02-07T01:42:37.668Z,10.10
2023-02-07T01:45:24.983Z,9.77
2023-02-07T01:48:10.175Z,7.50
2023-02-07T01:50:54.064Z,7.70
2023-02-07T01:53:38.068Z,6.53
2023-02-07T01:56:31.192Z,8.40
2023-02-07T01:59:16.481Z,9.52
2023-02-07T02:02:00.615Z,9.23
2023-02-07T02:04:44.683Z,8.13
2023-02-07T02:07:28.032Z,7.63
2023-02-07T02:10:14.323Z,6.40
2023-02-07T02:13:13.014Z,9.00
2023-02-07T02:16:01.669Z,9.70
2023-02-07T02:19:02.311Z,9.30
2023-02-07T02:21:56.041Z,8.82
2023-02-07T02:24:59.667Z,7.35
2023-02-07T02:27:53.040Z,7.28
2023-02-07T02:30:54.334Z,6.80
2023-02-07T02:33:45.279Z,9.23
2023-02-07T02:36:33.946Z,7.10
2023-02-07T02:39:21.978Z,7.68
2023-02-07T02:42:08.480Z,7.60
2023-02-07T02:44:54.565Z,7.43
2023-02-07T02:47:37.366Z,9.50
2023-02-07T02:50:23.459Z,9.38
2023-02-07T02:53:06.697Z,6.05
2023-02-07T02:55:57.525Z,8.43
2023-02-07T02:58:50.648Z,7.53
2023-02-07T03:01:40.343Z,6.25
2023-02-07T03:04:33.809Z,9.20
2023-02-07T03:07:24.821Z,6.30
2023-02-07T03:10:14.391Z,7.68
2023-02-07T03:12:58.953Z,8.60
2023-02-07T03:15:48.966Z,10.20
2023-02-07T03:18:41.054Z,8.15
2023-02-07T03:21:25.830Z,7.68
2023-02-07T03:24:11.703Z,6.13
2023-02-07T03:26:55.873Z,8.23
2023-02-07T03:29:39.616Z,6.28
2023-02-07T03:32:22.495Z,7.43
2023-02-07T03:35:06.888Z,8.70
2023-02-07T03:37:51.723Z,6.13
2023-02-07T03:40:38.656Z,7.20
2023-02-07T03:43:23.405Z,6.97
2023-02-07T03:46:06.504Z,7.75
2023-02-07T03:48:49.136Z,9.10
2023-02-07T03:51:31.862Z,7.43
2023-02-07T03:54:15.078Z,7.05
2023-02-07T03:56:59.431Z,7.60
2023-02-07T03:59:42.160Z,6.78
2023-02-07T04:02:25.037Z,7.32
2023-02-07T04:05:08.275Z,8.82
2023-02-07T04:07:50.900Z,6.95
2023-02-07T04:10:33.538Z,6.32
2023-02-07T04:13:17.562Z,8.23
2023-02-07T04:16:00.431Z,6.45
2023-02-07T04:18:43.292Z,6.78
2023-02-07T04:21:26.220Z,6.30
2023-02-07T04:24:09.040Z,7.57
2023-02-07T04:26:51.736Z,7.00
2023-02-07T04:29:35.798Z,6.78
2023-02-07T04:32:18.502Z,7.40
2023-02-07T04:35:01.228Z,7.28
2023-02-07T04:37:43.927Z,6.43
2023-02-07T04:40:26.648Z,6.28
2023-02-07T04:43:09.367Z,7.88
2023-02-07T04:45:53.537Z,6.95
2023-02-07T04:48:37.555Z,6.38
2023-02-07T04:51:20.270Z,6.72
2023-02-07T04:54:02.980Z,5.72
2023-02-07T04:56:45.698Z,7.60
2023-02-07T04:59:28.386Z,8.00
2023-02-07T05:02:12.451Z,8.00
2023-02-07T05:04:55.163Z,7.72
2023-02-07T05:07:37.886Z,7.05
2023-02-07T05:10:20.598Z,7.32
2023-02-07T05:13:03.419Z,6.75
2023-02-07T05:15:46.320Z,7.30
2023-02-07T05:18:30.676Z,6.88
2023-02-07T05:21:13.406Z,6.22
2023-02-07T05:23:56.191Z,7.80
2023-02-07T05:26:40.371Z,8.18
2023-02-07T05:29:23.183Z,13.85
2023-02-07T05:32:31.883Z,7.00
2023-02-07T05:35:16.365Z,8.02
2023-02-07T05:37:59.077Z,10.02
2023-02-07T05:40:42.610Z,9.23
2023-02-07T05:43:25.407Z,7.32
2023-02-07T05:46:08.029Z,7.13
2023-02-07T05:48:50.732Z,11.00
2023-02-07T05:51:34.781Z,8.55
2023-02-07T05:54:17.485Z,8.00
2023-02-07T05:57:00.218Z,7.70
2023-02-07T05:59:42.906Z,7.82
2023-02-07T06:02:25.761Z,8.05
2023-02-07T06:05:08.752Z,7.03
2023-02-07T06:07:52.902Z,6.60
2023-02-07T06:10:35.605Z,6.90
2023-02-07T06:13:18.314Z,7.30
2023-02-07T06:16:01.017Z,8.32
2023-02-07T06:18:43.756Z,7.22
2023-02-07T06:21:34.679Z,7.95
2023-02-07T06:24:25.263Z,7.90
2023-02-07T06:27:07.993Z,5.90
2023-02-07T06:29:50.687Z,8.18
2023-02-07T06:32:34.401Z,9.15
2023-02-07T06:35:17.156Z,8.02
2023-02-07T06:37:59.869Z,7.68
2023-02-07T06:40:44.315Z,8.50
2023-02-07T06:43:27.032Z,6.10
2023-02-07T06:46:09.764Z,8.70
2023-02-07T06:48:52.793Z,7.88
2023-02-07T06:51:35.461Z,8.98
2023-02-07T06:54:18.171Z,9.10
2023-02-07T06:57:02.240Z,10.93
2023-02-07T06:59:44.955Z,7.78
2023-02-07T07:02:27.706Z,7.40
2023-02-07T07:05:10.499Z,6.82
2023-02-07T07:07:53.214Z,10.95
2023-02-07T07:10:35.918Z,9.70
2023-02-07T07:13:20.770Z,9.02
2023-02-07T07:16:03.504Z,8.35
2023-02-07T07:18:46.397Z,7.22
2023-02-07T07:21:29.108Z,7.18
2023-02-07T07:24:11.814Z,7.03
2023-02-07T07:26:54.534Z,9.32
2023-02-07T07:29:38.598Z,8.77
2023-02-07T07:35:24.196Z,11.18
2023-02-07T07:38:06.908Z,10.63
2023-02-07T07:40:49.960Z,9.23
2023-02-07T07:43:32.645Z,9.95
2023-02-07T07:46:16.800Z,9.85
2023-02-07T07:48:59.520Z,9.02
2023-02-07T07:51:42.192Z,8.02
2023-02-07T07:54:25.006Z,10.57
2023-02-07T07:57:07.730Z,7.90
2023-02-07T07:59:50.454Z,8.40
2023-02-07T08:02:34.522Z,9.85
2023-02-07T08:05:17.208Z,10.57
2023-02-07T08:08:00.111Z,10.55
2023-02-07T08:10:43.235Z,8.07
2023-02-07T08:13:29.543Z,8.43
2023-02-07T08:16:12.428Z,8.15
2023-02-07T08:18:56.515Z,10.13
2023-02-07T08:21:40.558Z,9.45
2023-02-07T08:24:23.380Z,8.57
2023-02-07T08:27:06.102Z,10.27
2023-02-07T08:29:48.835Z,9.52
2023-02-07T08:32:31.532Z,10.25
2023-02-07T08:35:15.757Z,12.00
2023-02-07T08:37:59.106Z,11.02
2023-02-07T08:40:41.906Z,11.85
2023-02-07T08:43:24.618Z,11.20
2023-02-07T08:46:07.823Z,10.30
2023-02-07T08:48:50.568Z,10.77
2023-02-07T08:51:34.699Z,11.23
2023-02-07T08:54:17.446Z,13.18
2023-02-07T08:57:00.224Z,11.70
2023-02-07T08:59:43.043Z,11.80
2023-02-07T09:02:25.790Z,13.32
2023-02-07T09:05:08.885Z,11.88
2023-02-07T09:07:52.960Z,11.35
2023-02-07T09:10:35.954Z,12.57
2023-02-07T09:13:18.664Z,11.73
2023-02-07T09:16:01.788Z,11.70
2023-02-07T09:18:44.547Z,11.10
2023-02-07T09:21:27.340Z,11.30
2023-02-07T09:24:11.495Z,11.98
2023-02-07T09:26:54.277Z,15.27
2023-02-07T09:29:36.993Z,11.88
2023-02-07T09:32:19.647Z,13.98
2023-02-07T09:35:02.338Z,13.25
2023-02-07T09:37:49.747Z,12.38
2023-02-07T09:40:35.606Z,12.60
2023-02-07T09:43:27.095Z,11.57
2023-02-07T09:46:14.037Z,12.88
2023-02-07T09:49:01.578Z,12.18
2023-02-07T09:51:45.225Z,11.02
2023-02-07T09:54:30.234Z,15.43
2023-02-07T09:57:15.687Z,12.57
2023-02-07T10:00:02.622Z,11.20
2023-02-07T10:02:49.820Z,13.57
2023-02-07T10:05:38.152Z,14.70
2023-02-07T10:08:22.109Z,12.70
2023-02-07T10:11:10.958Z,14.23
2023-02-07T10:14:02.630Z,14.85
2023-02-07T10:16:52.574Z,14.02
2023-02-07T10:19:39.813Z,15.93
2023-02-07T10:22:26.204Z,15.27
2023-02-07T10:25:14.265Z,14.90
2023-02-07T10:28:01.087Z,14.82
2023-02-07T10:30:49.575Z,14.02
2023-02-07T10:33:34.248Z,13.85
2023-02-07T10:36:18.322Z,14.30
2023-02-07T10:39:09.452Z,15.55
2023-02-07T10:41:55.970Z,14.98
2023-02-07T10:44:38.811Z,14.65
2023-02-07T10:47:23.371Z,12.18
2023-02-07T10:50:10.479Z,13.20
2023-02-07T10:52:54.240Z,12.38
2023-02-07T10:55:40.244Z,14.88
2023-02-07T10:58:24.160Z,13.13
2023-02-07T11:01:07.108Z,14.52
2023-02-07T11:03:52.077Z,14.40
2023-02-07T11:06:35.867Z,12.63
2023-02-07T11:09:21.373Z,11.90
2023-02-07T11:12:13.798Z,14.60
2023-02-07T11:15:04.714Z,13.45
2023-02-07T11:17:49.106Z,13.27
2023-02-07T11:20:35.277Z,13.13
2023-02-07T11:23:19.201Z,13.23
2023-02-07T11:26:03.570Z,12.60
2023-02-07T11:28:46.786Z,14.00
2023-02-07T11:31:30.982Z,14.35
2023-02-07T11:34:28.306Z,14.52
2023-02-07T11:37:20.555Z,13.60
2023-02-07T11:40:23.325Z,13.38
2023-02-07T11:43:12.104Z,15.75
2023-02-07T11:46:00.225Z,17.08
2023-02-07T11:48:42.907Z,13.32
2023-02-07T11:51:25.825Z,14.90
2023-02-07T11:54:11.321Z,13.90
2023-02-07T11:56:55.591Z,13.57
2023-02-07T11:59:46.450Z,15.38
2023-02-07T12:02:30.093Z,13.50
2023-02-07T12:05:19.548Z,12.68
2023-02-07T12:08:03.844Z,15.57
2023-02-07T12:10:50.473Z,13.20
2023-02-07T12:13:35.630Z,14.35
2023-02-07T12:16:20.812Z,15.23
2023-02-07T12:19:06.349Z,11.68
2023-02-07T12:21:54.417Z,16.35
2023-02-07T12:24:38.353Z,12.27
2023-02-07T12:27:23.906Z,14.25
2023-02-07T12:30:13.957Z,16.60
2023-02-07T12:33:00.704Z,12.10
2023-02-07T12:35:56.804Z,14.50
2023-02-07T12:38:45.422Z,15.13
2023-02-07T12:41:30.570Z,14.70
2023-02-07T12:44:21.078Z,13.35
2023-02-07T12:47:08.195Z,14.80
2023-02-07T12:49:59.383Z,14.85
2023-02-07T12:52:45.167Z,16.15
2023-02-07T12:55:35.931Z,13.95
2023-02-07T12:58:33.352Z,11.70
2023-02-07T13:01:22.122Z,12.75
2023-02-07T13:04:23.950Z,13.10
2023-02-07T13:07:13.121Z,11.27
2023-02-07T13:10:01.070Z,11.13
2023-02-07T13:12:46.118Z,10.30
2023-02-07T13:15:34.983Z,11.65
2023-02-07T13:18:22.708Z,11.07
2023-02-07T13:21:10.849Z,12.25
2023-02-07T13:23:56.737Z,11.45
2023-02-07T13:26:39.569Z,10.98
2023-02-07T13:29:23.493Z,10.77
2023-02-07T13:32:12.396Z,10.70
2023-02-07T13:34:58.850Z,12.23
2023-02-07T13:37:46.265Z,10.70
2023-02-07T13:40:34.248Z,9.80
2023-02-07T13:43:21.532Z,11.85
2023-02-07T13:46:09.967Z,11.95
2023-02-07T13:48:56.069Z,16.23
2023-02-07T13:51:44.623Z,17.13
2023-02-07T13:54:32.985Z,13.80
2023-02-07T13:57:48.082Z,14.00
2023-02-07T14:00:32.126Z,10.88
2023-02-07T14:03:21.098Z,10.02
2023-02-07T14:06:16.269Z,9.48
2023-02-07T14:09:01.954Z,10.40
2023-02-07T14:11:45.770Z,10.18
2023-02-07T14:14:29.651Z,10.20
2023-02-07T14:17:14.409Z,12.02
2023-02-07T14:19:57.628Z,11.70
2023-02-07T14:22:55.300Z,12.93
2023-02-07T14:25:43.037Z,12.63
2023-02-07T14:28:36.154Z,11.98
2023-02-07T14:31:22.741Z,11.27
2023-02-07T14:34:15.319Z,11.93
2023-02-07T14:37:00.495Z,13.27
2023-02-07T14:39:43.389Z,15.80
2023-02-07T14:42:27.574Z,15.23
2023-02-07T14:45:18.921Z,15.25
2023-02-07T14:48:01.698Z,14.70
2023-02-07T14:50:52.601Z,12.32
2023-02-07T14:53:38.819Z,13.57
2023-02-07T14:56:28.786Z,15.73
2023-02-07T14:59:14.278Z,13.77
2023-02-07T15:01:57.053Z,15.00
2023-02-07T15:04:42.022Z,15.88
2023-02-07T15:07:25.146Z,14.35
2023-02-07T15:10:14.722Z,14.90
2023-02-07T15:12:57.739Z,13.35
2023-02-07T15:15:47.270Z,14.30
2023-02-07T15:18:31.791Z,15.40
2023-02-07T15:21:17.139Z,13.77
2023-02-07T15:24:01.626Z,15.07
2023-02-07T15:26:49.552Z,19.85
2023-02-07T15:29:34.007Z,16.00
2023-02-07T15:32:23.538Z,17.08
2023-02-07T15:35:13.264Z,17.42
2023-02-07T15:37:56.802Z,15.35
2023-02-07T15:40:40.850Z,17.23
2023-02-07T15:43:25.704Z,21.80
2023-02-07T15:46:09.807Z,20.42
2023-02-07T15:48:55.117Z,20.23
2023-02-07T15:51:41.216Z,18.30
2023-02-07T15:54:24.830Z,20.40
2023-02-07T15:57:12.455Z,17.00
2023-02-07T15:59:56.566Z,19.85
2023-02-07T16:02:42.044Z,19.98
2023-02-07T16:05:27.589Z,19.25
2023-02-07T16:08:25.227Z,20.58
2023-02-07T16:11:16.355Z,17.95
2023-02-07T16:14:03.603Z,17.05
2023-02-07T16:16:49.758Z,20.23
2023-02-07T16:19:33.154Z,19.55
2023-02-07T16:22:18.263Z,20.98
2023-02-07T16:25:01.512Z,15.57
2023-02-07T16:27:45.461Z,17.98
2023-02-07T16:30:30.104Z,17.60
2023-02-07T16:33:13.719Z,19.33
2023-02-07T16:35:56.551Z,18.17
2023-02-07T16:38:40.616Z,18.50
2023-02-07T16:41:25.956Z,16.20
2023-02-07T16:44:09.189Z,17.15
2023-02-07T16:46:51.835Z,17.75
2023-02-07T16:49:34.936Z,16.23
2023-02-07T16:52:17.628Z,18.17
2023-02-07T16:55:01.788Z,16.90
2023-02-07T16:57:45.105Z,16.88
2023-02-07T17:00:28.178Z,18.70
2023-02-07T17:03:15.244Z,17.60
2023-02-07T17:05:58.118Z,23.38
2023-02-07T17:08:40.802Z,24.40
2023-02-07T17:11:26.187Z,22.45
2023-02-07T17:14:09.074Z,25.08
2023-02-07T17:16:51.905Z,32.08
2023-02-07T17:19:34.612Z,27.00
2023-02-07T17:22:17.331Z,24.17
2023-02-07T17:25:00.980Z,22.90
2023-02-07T17:27:45.211Z,19.50
2023-02-07T17:30:28.834Z,23.67
2023-02-07T17:33:11.950Z,36.58
2023-02-07T17:35:54.674Z,42.65
2023-02-07T17:38:37.394Z,31.88
2023-02-07T17:41:21.445Z,34.17
2023-02-07T17:44:05.591Z,41.90
2023-02-07T17:46:48.292Z,28.77
2023-02-07T17:49:31.012Z,23.38
2023-02-07T17:52:14.745Z,29.90
2023-02-07T17:54:57.480Z,28.83
2023-02-07T17:57:41.531Z,27.90
2023-02-07T18:00:26.605Z,24.23
2023-02-07T18:03:09.498Z,25.15
2023-02-07T18:05:52.392Z,25.00
2023-02-07T18:08:35.115Z,27.52
2023-02-07T18:11:18.432Z,27.75
2023-02-07T18:14:01.947Z,26.98
2023-02-07T18:16:46.141Z,27.70
2023-02-07T18:19:31.202Z,25.63
2023-02-07T18:22:13.897Z,26.40
2023-02-07T18:24:56.711Z,25.35
2023-02-07T18:27:39.433Z,27.80
2023-02-07T18:30:23.229Z,27.02
2023-02-07T18:33:07.323Z,27.67
2023-02-07T18:35:56.412Z,25.65
2023-02-07T18:38:39.297Z,24.20
2023-02-07T18:41:24.099Z,28.35
2023-02-07T18:44:06.836Z,23.02
2023-02-07T18:46:49.509Z,24.70
2023-02-07T18:49:34.567Z,27.10
2023-02-07T18:52:17.396Z,23.58
2023-02-07T18:55:00.120Z,23.45
2023-02-07T18:57:42.914Z,24.80
2023-02-07T19:00:25.656Z,27.88
2023-02-07T19:03:08.356Z,24.13
2023-02-07T19:05:52.486Z,24.35
2023-02-07T19:08:35.214Z,35.33
2023-02-07T19:11:18.130Z,24.05
2023-02-07T19:14:00.858Z,26.88
2023-02-07T19:16:43.766Z,35.75
2023-02-07T19:19:28.034Z,33.05
2023-02-07T19:22:12.136Z,35.72
2023-02-07T19:24:54.849Z,33.58
2023-02-07T19:27:37.684Z,26.95
2023-02-07T19:30:20.398Z,32.20
2023-02-07T19:33:03.127Z,31.92
2023-02-07T19:35:45.811Z,32.08
2023-02-07T19:38:30.000Z,32.08
2023-02-07T19:41:12.681Z,30.58
2023-02-07T19:43:55.890Z,26.73
2023-02-07T19:46:38.720Z,26.65
2023-02-07T19:49:21.523Z,27.52
2023-02-07T19:52:04.341Z,27.80
2023-02-07T19:54:48.499Z,29.42
2023-02-07T19:57:32.549Z,26.70
2023-02-07T20:00:15.583Z,26.35
2023-02-07T20:02:58.698Z,29.10
2023-02-07T20:05:43.765Z,26.27
2023-02-07T20:08:26.507Z,27.58
2023-02-07T20:11:11.536Z,30.60
2023-02-07T20:13:55.287Z,30.98
2023-02-07T20:16:38.797Z,31.00
2023-02-07T20:19:22.038Z,31.85
2023-02-07T20:22:04.769Z,36.25
2023-02-07T20:24:47.714Z,33.58
2023-02-07T20:27:31.837Z,28.13
2023-02-07T20:30:14.943Z,32.83
2023-02-07T20:32:58.585Z,33.17
2023-02-07T20:35:41.400Z,32.03
2023-02-07T20:38:24.135Z,30.80
2023-02-07T20:41:07.998Z,31.08
2023-02-07T20:43:52.112Z,31.33
2023-02-07T20:46:36.021Z,28.63
2023-02-07T20:49:20.712Z,30.40
2023-02-07T20:52:03.522Z,28.92
2023-02-07T20:54:47.669Z,27.83
2023-02-07T20:57:30.385Z,28.25
2023-02-07T21:00:15.447Z,28.05
2023-02-07T21:02:58.248Z,26.48
2023-02-07T21:05:40.996Z,28.08
2023-02-07T21:08:23.739Z,26.55
2023-02-07T21:11:07.031Z,27.30
2023-02-07T21:13:53.917Z,29.00
2023-02-07T21:16:38.210Z,25.15
2023-02-07T21:19:21.705Z,26.80
2023-02-07T21:22:04.941Z,26.00
2023-02-07T21:24:48.491Z,26.80
2023-02-07T21:27:31.218Z,27.35
2023-02-07T21:30:14.252Z,28.73
2023-02-07T21:32:58.545Z,26.30
2023-02-07T21:35:41.290Z,27.10
2023-02-07T21:38:24.007Z,26.88
2023-02-07T21:41:08.250Z,26.90
2023-02-07T21:43:51.153Z,27.67
2023-02-07T21:46:35.032Z,27.88
2023-02-07T21:49:20.590Z,27.30
2023-02-07T21:52:03.576Z,30.23
2023-02-07T21:54:46.332Z,27.67
2023-02-07T21:57:29.030Z,32.50
2023-02-07T22:00:12.775Z,28.90
2023-02-07T22:02:55.489Z,27.15
2023-02-07T22:05:39.515Z,30.40
2023-02-07T22:08:22.272Z,28.65
2023-02-07T22:11:05.056Z,27.20
2023-02-07T22:13:48.565Z,32.90
2023-02-07T22:16:32.062Z,27.30
2023-02-07T22:19:17.149Z,29.10
2023-02-07T22:22:01.435Z,25.27
2023-02-07T22:24:44.148Z,29.88
2023-02-07T22:27:26.857Z,30.52
2023-02-07T22:30:10.189Z,30.65
2023-02-07T22:32:53.012Z,29.70
2023-02-07T22:35:36.427Z,29.10
2023-02-07T22:38:20.485Z,28.05
2023-02-07T22:41:03.395Z,28.90
2023-02-07T22:43:46.209Z,32.30
2023-02-07T22:46:29.675Z,31.05
2023-02-07T22:49:12.474Z,28.45
2023-02-07T22:51:55.186Z,29.70
2023-02-07T22:54:39.216Z,26.85
2023-02-07T22:57:21.939Z,25.95
2023-02-07T23:00:05.457Z,28.42
2023-02-07T23:02:48.315Z,27.65
2023-02-07T23:05:31.011Z,26.10
2023-02-07T23:08:14.027Z,26.85
2023-02-07T23:10:58.134Z,28.73
2023-02-07T23:13:41.199Z,21.98
2023-02-07T23:16:25.030Z,27.08
2023-02-07T23:19:09.891Z,25.17
2023-02-07T23:21:52.614Z,26.92
2023-02-07T23:24:35.310Z,26.67
2023-02-07T23:27:19.358Z,23.58
2023-02-07T23:30:02.097Z,24.75
2023-02-07T23:32:44.809Z,26.35
2023-02-07T23:35:27.520Z,23.08
2023-02-07T23:38:10.213Z,25.40
2023-02-07T23:40:52.945Z,26.88
2023-02-07T23:43:37.315Z,25.35
2023-02-07T23:46:20.322Z,24.67
2023-02-07T23:49:03.137Z,22.83
2023-02-07T23:51:46.600Z,23.38
2023-02-07T23:54:29.367Z,24.92
2023-02-07T23:57:12.084Z,20.30
2023-02-07T23:59:56.140Z,22.00
